Terminal Aerodrome Forecast
Issued by NWS

Home | Current Version | Previous Version | Text Only | Print | Product List | Glossary On
Versions: 1 2 3 4 5 6 7 8 9 10 11 12 13 14 15 16 17 18 19 20 21 22 23
000
FTUS43 KDLH 312300
TAFHYR
TAF
KHYR 312324Z 0100/0124 VRB04KT P6SM SKC
     FM010100 00000KT P6SM VCSH BKN070
     FM010600 00000KT 6SM BR SCT070
      TEMPO 0108/0112 3/4SM BR SCT004
     FM011500 01005KT P6SM SCT050=

USA.gov is the U.S. government's official web portal to all federal, state and local government web resources and services.